createdAt,value
2022-08-16T00:01:28.996Z,4.90
2022-08-16T00:04:00.836Z,4.62
2022-08-16T00:06:29.531Z,4.43
2022-08-16T00:08:55.779Z,4.20
2022-08-16T00:11:22.008Z,4.22
2022-08-16T00:13:54.021Z,4.22
2022-08-16T00:17:00.907Z,4.10
2022-08-16T00:19:42.771Z,4.03
2022-08-16T00:22:13.780Z,4.18
2022-08-16T00:24:44.947Z,4.12
2022-08-16T00:27:14.366Z,4.30
2022-08-16T00:29:40.692Z,4.12
2022-08-16T00:32:08.939Z,4.47
2022-08-16T00:34:44.273Z,4.40
2022-08-16T00:37:21.031Z,4.10
2022-08-16T00:39:57.099Z,4.32
2022-08-16T00:42:30.673Z,4.70
2022-08-16T00:45:13.221Z,4.37
2022-08-16T00:47:49.238Z,4.18
2022-08-16T00:50:19.348Z,4.30
2022-08-16T00:52:50.909Z,4.00
2022-08-16T00:55:20.755Z,3.95
2022-08-16T00:57:58.825Z,4.15
2022-08-16T01:00:29.247Z,4.57
2022-08-16T01:02:58.161Z,4.80
2022-08-16T01:05:25.326Z,4.70
2022-08-16T01:07:53.453Z,4.45
2022-08-16T01:10:30.515Z,4.62
2022-08-16T01:13:05.558Z,4.50
2022-08-16T01:15:35.371Z,4.12
2022-08-16T01:18:03.771Z,4.30
2022-08-16T01:20:32.532Z,4.22
2022-08-16T01:23:58.410Z,4.37
2022-08-16T01:26:34.442Z,3.70
2022-08-16T01:29:11.081Z,3.70
2022-08-16T01:31:37.540Z,3.60
2022-08-16T01:34:25.230Z,3.70
2022-08-16T01:37:01.756Z,3.65
2022-08-16T01:39:29.884Z,3.60
2022-08-16T01:41:58.770Z,3.90
2022-08-16T01:44:25.333Z,3.90
2022-08-16T01:47:04.687Z,4.22
2022-08-16T01:49:45.403Z,4.30
2022-08-16T01:53:10.915Z,4.20
2022-08-16T01:55:40.855Z,5.95
2022-08-16T01:58:07.877Z,5.10
2022-08-16T02:00:38.065Z,4.30
2022-08-16T02:03:04.290Z,4.50
2022-08-16T02:05:31.019Z,5.00
2022-08-16T02:07:57.687Z,5.40
2022-08-16T02:10:25.826Z,5.40
2022-08-16T02:12:56.089Z,5.93
2022-08-16T02:15:30.487Z,11.05
2022-08-16T02:17:58.844Z,6.05
2022-08-16T02:20:32.203Z,5.55
2022-08-16T02:22:59.668Z,5.85
2022-08-16T02:25:50.481Z,6.10
2022-08-16T02:28:19.371Z,6.40
2022-08-16T02:30:50.530Z,6.93
2022-08-16T02:33:19.145Z,7.10
2022-08-16T02:35:54.373Z,9.65
2022-08-16T02:38:26.857Z,7.00
2022-08-16T02:40:54.930Z,7.10
2022-08-16T02:43:26.848Z,6.10
2022-08-16T02:45:55.718Z,7.10
2022-08-16T02:48:28.944Z,6.60
2022-08-16T02:51:10.429Z,6.68
2022-08-16T02:53:43.315Z,6.90
2022-08-16T02:56:11.966Z,6.95
2022-08-16T02:58:44.188Z,6.40
2022-08-16T03:01:24.122Z,6.30
2022-08-16T03:04:39.640Z,6.45
2022-08-16T03:07:27.792Z,6.72
2022-08-16T03:09:54.183Z,6.55
2022-08-16T03:12:20.478Z,6.18
2022-08-16T03:14:59.369Z,6.53
2022-08-16T03:17:30.035Z,6.55
2022-08-16T03:20:02.731Z,6.70
2022-08-16T03:22:30.436Z,6.85
2022-08-16T03:24:58.311Z,7.45
2022-08-16T03:27:30.864Z,14.98
2022-08-16T03:30:16.479Z,7.57
2022-08-16T03:32:47.840Z,7.28
2022-08-16T03:35:21.002Z,7.68
2022-08-16T03:38:01.645Z,6.22
2022-08-16T03:40:33.337Z,5.55
2022-08-16T03:43:20.281Z,5.20
2022-08-16T03:45:52.385Z,5.10
2022-08-16T03:48:37.050Z,4.70
2022-08-16T03:51:12.431Z,3.92
2022-08-16T03:53:39.497Z,4.18
2022-08-16T03:56:07.553Z,3.35
2022-08-16T03:58:35.374Z,3.50
2022-08-16T04:01:04.763Z,3.35
2022-08-16T04:03:32.200Z,3.40
2022-08-16T04:05:59.651Z,3.50
2022-08-16T04:08:30.618Z,3.08
2022-08-16T04:10:58.065Z,2.90
2022-08-16T04:14:00.497Z,3.22
2022-08-16T04:16:35.717Z,7.50
2022-08-16T04:19:04.177Z,3.40
2022-08-16T04:21:32.925Z,3.35
2022-08-16T04:24:00.029Z,3.85
2022-08-16T04:26:30.692Z,4.12
2022-08-16T04:29:16.891Z,3.55
2022-08-16T04:31:56.242Z,3.80
2022-08-16T04:34:32.446Z,4.50
2022-08-16T04:37:01.460Z,4.20
2022-08-16T04:39:45.981Z,4.43
2022-08-16T04:42:16.836Z,5.07
2022-08-16T04:44:57.481Z,3.50
2022-08-16T04:47:33.447Z,3.60
2022-08-16T04:50:07.938Z,3.20
2022-08-16T04:52:35.954Z,3.10
2022-08-16T04:55:15.527Z,3.22
2022-08-16T04:57:42.593Z,3.20
2022-08-16T05:00:31.014Z,3.20
2022-08-16T05:03:01.039Z,3.20
2022-08-16T05:05:32.868Z,3.10
2022-08-16T05:08:29.368Z,3.33
2022-08-16T05:11:00.217Z,3.12
2022-08-16T05:13:41.593Z,3.08
2022-08-16T05:16:21.797Z,3.25
2022-08-16T05:18:51.157Z,3.45
2022-08-16T05:21:20.830Z,3.22
2022-08-16T05:23:55.790Z,3.37
2022-08-16T05:26:27.983Z,3.42
2022-08-16T05:28:59.778Z,3.70
2022-08-16T05:31:29.309Z,3.87
2022-08-16T05:33:58.710Z,3.70
2022-08-16T05:36:33.982Z,3.80
2022-08-16T05:41:44.560Z,3.47
2022-08-16T05:44:23.102Z,3.85
2022-08-16T05:46:56.406Z,4.07
2022-08-16T05:49:24.515Z,3.58
2022-08-16T05:51:52.540Z,4.50
2022-08-16T05:54:20.237Z,4.62
2022-08-16T05:56:52.641Z,5.05
2022-08-16T05:59:19.234Z,5.40
2022-08-16T06:01:45.568Z,5.15
2022-08-16T06:04:36.316Z,5.18
2022-08-16T06:07:06.334Z,5.12
2022-08-16T06:09:42.582Z,4.90
2022-08-16T06:12:12.741Z,4.37
2022-08-16T06:14:58.956Z,4.20
2022-08-16T06:17:41.739Z,3.83
2022-08-16T06:20:23.662Z,4.05
2022-08-16T06:22:57.292Z,5.70
2022-08-16T06:25:36.284Z,6.00
2022-08-16T06:28:08.740Z,5.95
2022-08-16T06:30:44.004Z,4.87
2022-08-16T06:33:22.450Z,4.85
2022-08-16T06:35:55.280Z,5.55
2022-08-16T06:38:32.183Z,5.68
2022-08-16T06:41:05.616Z,9.48
2022-08-16T06:43:32.632Z,11.12
2022-08-16T06:46:03.819Z,5.90
2022-08-16T06:48:34.494Z,7.75
2022-08-16T06:51:04.739Z,27.55
2022-08-16T06:53:35.725Z,21.05
2022-08-16T06:56:06.149Z,15.35
2022-08-16T06:58:43.089Z,12.32
2022-08-16T07:01:15.188Z,11.27
2022-08-16T07:03:54.678Z,13.75
2022-08-16T07:06:26.468Z,16.95
2022-08-16T07:08:54.305Z,9.07
2022-08-16T07:11:20.606Z,10.55
2022-08-16T07:14:24.395Z,15.32
2022-08-16T07:16:52.921Z,36.95
2022-08-16T07:19:20.343Z,32.75
2022-08-16T07:21:59.711Z,29.52
2022-08-16T07:24:30.294Z,13.30
2022-08-16T07:27:02.163Z,12.75
2022-08-16T07:29:31.567Z,11.90
2022-08-16T07:32:00.657Z,13.68
2022-08-16T07:34:35.072Z,16.98
2022-08-16T07:37:06.810Z,15.50
2022-08-16T07:39:33.930Z,13.27
2022-08-16T07:42:00.584Z,12.68
2022-08-16T07:44:28.631Z,15.80
2022-08-16T07:47:16.423Z,25.37
2022-08-16T07:49:53.346Z,24.55
2022-08-16T07:52:29.907Z,22.92
2022-08-16T07:54:58.007Z,30.00
2022-08-16T07:57:25.436Z,24.52
2022-08-16T07:59:53.272Z,22.17
2022-08-16T08:02:27.374Z,19.15
2022-08-16T08:04:59.794Z,22.98
2022-08-16T08:07:29.688Z,14.18
2022-08-16T08:09:59.382Z,15.60
2022-08-16T08:12:32.027Z,10.63
2022-08-16T08:15:09.687Z,12.32
2022-08-16T08:17:43.319Z,12.37
2022-08-16T08:20:26.271Z,13.62
2022-08-16T08:23:00.839Z,11.73
2022-08-16T08:25:53.471Z,9.32
2022-08-16T08:28:21.766Z,9.65
2022-08-16T08:31:02.532Z,11.15
2022-08-16T08:33:34.045Z,11.00
2022-08-16T08:36:01.688Z,10.10
2022-08-16T08:38:44.206Z,9.10
2022-08-16T08:41:14.686Z,7.93
2022-08-16T08:43:42.670Z,8.50
2022-08-16T08:46:17.906Z,8.52
2022-08-16T08:48:59.174Z,10.52
2022-08-16T08:51:27.571Z,8.50
2022-08-16T08:54:00.010Z,10.25
2022-08-16T08:56:29.949Z,8.82
2022-08-16T08:59:03.102Z,8.05
2022-08-16T09:01:36.912Z,7.40
2022-08-16T09:04:17.449Z,6.00
2022-08-16T09:06:44.657Z,9.90
2022-08-16T09:09:16.777Z,11.23
2022-08-16T09:11:47.304Z,11.50
2022-08-16T09:14:24.092Z,12.10
2022-08-16T09:17:03.651Z,7.75
2022-08-16T09:19:40.804Z,7.68
2022-08-16T09:22:19.911Z,9.90
2022-08-16T09:24:53.145Z,11.20
2022-08-16T09:27:26.447Z,7.70
2022-08-16T09:29:59.816Z,9.18
2022-08-16T09:32:30.514Z,10.93
2022-08-16T09:34:59.212Z,6.40
2022-08-16T09:37:36.259Z,10.27
2022-08-16T09:40:32.222Z,11.43
2022-08-16T09:42:59.813Z,11.07
2022-08-16T09:45:28.919Z,10.40
2022-08-16T09:47:57.990Z,10.13
2022-08-16T09:50:37.269Z,10.75
2022-08-16T09:53:14.851Z,10.63
2022-08-16T09:55:49.657Z,9.43
2022-08-16T09:58:37.709Z,7.80
2022-08-16T10:01:08.463Z,6.50
2022-08-16T10:03:37.667Z,6.10
2022-08-16T10:06:34.038Z,8.68
2022-08-16T10:09:10.519Z,7.85
2022-08-16T10:11:56.286Z,8.30
2022-08-16T10:14:41.001Z,14.95
2022-08-16T10:17:13.005Z,7.12
2022-08-16T10:19:39.578Z,28.92
2022-08-16T10:22:05.972Z,28.90
2022-08-16T10:24:33.153Z,31.00
2022-08-16T10:27:21.084Z,28.95
2022-08-16T10:30:00.003Z,21.55
2022-08-16T10:32:30.591Z,22.00
2022-08-16T10:34:58.990Z,24.80
2022-08-16T10:37:32.253Z,26.25
2022-08-16T10:40:28.719Z,25.00
2022-08-16T10:42:59.272Z,23.77
2022-08-16T10:45:27.311Z,22.95
2022-08-16T10:48:03.259Z,21.25
2022-08-16T10:50:30.493Z,27.08
2022-08-16T10:52:59.295Z,32.00
2022-08-16T10:55:45.127Z,31.67
2022-08-16T10:58:13.414Z,35.42
2022-08-16T11:00:43.920Z,33.30
2022-08-16T11:06:12.340Z,29.12
2022-08-16T11:08:45.311Z,25.77
2022-08-16T11:11:19.181Z,22.80
2022-08-16T11:14:06.128Z,24.95
2022-08-16T11:20:00.039Z,30.02
2022-08-16T11:22:47.162Z,27.95
2022-08-16T11:28:36.435Z,17.55
2022-08-16T11:31:39.272Z,18.92
2022-08-16T11:34:10.018Z,19.33
2022-08-16T11:36:36.564Z,21.20
2022-08-16T11:39:04.557Z,21.70
2022-08-16T11:41:38.482Z,20.65
2022-08-16T11:44:11.713Z,19.15
2022-08-16T11:46:47.219Z,18.80
2022-08-16T11:49:14.222Z,18.50
2022-08-16T11:51:43.570Z,18.98
2022-08-16T11:54:20.316Z,16.70
2022-08-16T11:56:52.597Z,15.38
2022-08-16T11:59:28.786Z,20.85
2022-08-16T12:01:59.278Z,20.08
2022-08-16T12:04:26.903Z,18.37
2022-08-16T12:06:54.624Z,18.42
2022-08-16T12:09:21.557Z,18.62
2022-08-16T12:11:53.049Z,16.77
2022-08-16T12:14:23.018Z,17.10
2022-08-16T12:16:55.410Z,28.92
2022-08-16T12:19:33.981Z,22.02
2022-08-16T12:22:05.559Z,20.77
2022-08-16T12:24:44.737Z,18.95
2022-08-16T12:27:17.064Z,17.75
2022-08-16T12:29:44.514Z,18.52
2022-08-16T12:32:37.513Z,18.37
2022-08-16T12:35:14.078Z,17.60
2022-08-16T12:37:41.906Z,16.15
2022-08-16T12:40:21.262Z,16.20
2022-08-16T12:42:54.353Z,11.10
2022-08-16T12:45:23.120Z,12.73
2022-08-16T12:48:31.395Z,12.27
2022-08-16T12:51:01.175Z,12.80
2022-08-16T12:53:32.065Z,13.57
2022-08-16T12:56:00.114Z,16.55
2022-08-16T12:58:48.415Z,19.40
2022-08-16T13:01:19.142Z,17.05
2022-08-16T13:03:49.063Z,13.50
2022-08-16T13:06:19.948Z,13.18
2022-08-16T13:08:46.770Z,13.10
2022-08-16T13:11:15.489Z,11.23
2022-08-16T13:13:44.663Z,13.07
2022-08-16T13:16:20.165Z,14.50
2022-08-16T13:18:51.542Z,11.38
2022-08-16T13:21:19.157Z,10.70
2022-08-16T13:23:49.980Z,14.20
2022-08-16T13:26:17.917Z,13.82
2022-08-16T13:28:46.226Z,15.88
2022-08-16T13:31:15.851Z,17.98
2022-08-16T13:33:44.591Z,19.48
2022-08-16T13:36:21.144Z,18.83
2022-08-16T13:38:59.654Z,17.87
2022-08-16T13:41:26.622Z,15.57
2022-08-16T13:43:59.845Z,16.75
2022-08-16T13:46:27.307Z,23.05
2022-08-16T13:48:56.357Z,32.03
2022-08-16T13:51:24.249Z,16.73
2022-08-16T13:53:55.466Z,24.80
2022-08-16T13:56:31.809Z,25.10
2022-08-16T13:59:16.506Z,15.20
2022-08-16T14:01:46.511Z,22.87
2022-08-16T14:04:23.347Z,21.85
2022-08-16T14:06:55.501Z,23.30
2022-08-16T14:09:24.150Z,23.12
2022-08-16T14:11:53.695Z,18.87
2022-08-16T14:14:28.731Z,15.48
2022-08-16T14:17:00.249Z,12.52
2022-08-16T14:19:29.508Z,12.48
2022-08-16T14:22:13.602Z,13.10
2022-08-16T14:24:46.832Z,15.10
2022-08-16T14:27:17.979Z,14.65
2022-08-16T14:29:45.947Z,15.70
2022-08-16T14:32:27.125Z,17.67
2022-08-16T14:35:05.994Z,22.10
2022-08-16T14:37:34.404Z,23.87
2022-08-16T14:40:00.763Z,23.73
2022-08-16T14:42:28.277Z,21.67
2022-08-16T14:44:55.198Z,19.48
2022-08-16T14:47:22.745Z,21.95
2022-08-16T14:49:52.445Z,22.02
2022-08-16T14:52:52.103Z,20.05
2022-08-16T14:55:20.827Z,18.48
2022-08-16T14:57:47.823Z,17.15
2022-08-16T15:00:18.087Z,19.98
2022-08-16T15:02:55.714Z,20.67
2022-08-16T15:05:24.162Z,19.20
2022-08-16T15:07:51.961Z,18.05
2022-08-16T15:10:24.000Z,16.02
2022-08-16T15:12:56.316Z,17.52
2022-08-16T15:15:27.236Z,15.52
2022-08-16T15:17:56.490Z,12.25
2022-08-16T15:20:26.592Z,10.45
2022-08-16T15:22:53.060Z,9.45
2022-08-16T15:25:29.488Z,8.60
2022-08-16T15:28:00.895Z,9.00
2022-08-16T15:30:57.176Z,63.10
2022-08-16T15:33:27.620Z,11.50
2022-08-16T15:35:55.338Z,11.88
2022-08-16T15:38:56.981Z,14.10
2022-08-16T15:42:32.491Z,11.93
2022-08-16T15:45:03.194Z,11.55
2022-08-16T15:47:37.921Z,12.13
2022-08-16T15:50:06.722Z,12.13
2022-08-16T15:52:36.026Z,15.10
2022-08-16T15:55:13.043Z,18.08
2022-08-16T15:57:51.578Z,15.43
2022-08-16T16:00:19.996Z,16.70
2022-08-16T16:02:46.320Z,16.15
2022-08-16T16:05:18.840Z,15.68
2022-08-16T16:07:56.724Z,17.08
2022-08-16T16:10:37.728Z,20.10
2022-08-16T16:13:08.814Z,20.40
2022-08-16T16:15:47.379Z,23.62
2022-08-16T16:18:13.973Z,22.67
2022-08-16T16:20:46.152Z,19.25
2022-08-16T16:23:13.260Z,23.48
2022-08-16T16:25:44.146Z,22.55
2022-08-16T16:28:51.210Z,24.02
2022-08-16T16:31:36.003Z,22.98
2022-08-16T16:34:03.132Z,20.42
2022-08-16T16:36:31.605Z,24.25
2022-08-16T16:39:02.190Z,18.65
2022-08-16T16:41:29.385Z,16.48
2022-08-16T16:43:57.494Z,12.73
2022-08-16T16:46:40.339Z,17.85
2022-08-16T16:49:10.349Z,10.82
2022-08-16T16:51:40.820Z,8.80
2022-08-16T16:54:08.032Z,8.20
2022-08-16T16:56:37.522Z,8.20
2022-08-16T16:59:08.541Z,14.23
2022-08-16T17:02:00.428Z,19.25
2022-08-16T17:05:13.570Z,15.55
2022-08-16T17:07:40.607Z,9.43
2022-08-16T17:10:11.048Z,7.97
2022-08-16T17:12:46.558Z,7.78
2022-08-16T17:15:14.937Z,8.48
2022-08-16T17:18:00.409Z,6.65
2022-08-16T17:20:28.491Z,5.53
2022-08-16T17:22:55.432Z,7.37
2022-08-16T17:25:22.253Z,7.25
2022-08-16T17:27:50.874Z,4.90
2022-08-16T17:30:20.317Z,5.20
2022-08-16T17:33:04.363Z,4.47
2022-08-16T17:35:37.164Z,5.28
2022-08-16T17:38:06.078Z,6.03
2022-08-16T17:40:47.825Z,5.82
2022-08-16T17:43:31.253Z,6.60
2022-08-16T17:45:58.613Z,6.30
2022-08-16T17:48:25.461Z,5.50
2022-08-16T17:50:54.566Z,4.62
2022-08-16T17:53:21.298Z,4.00
2022-08-16T17:55:49.909Z,6.50
2022-08-16T17:58:22.514Z,7.50
2022-08-16T18:00:56.111Z,6.45
2022-08-16T18:04:03.264Z,4.95
2022-08-16T18:06:37.104Z,5.53
2022-08-16T18:09:04.145Z,5.45
2022-08-16T18:11:33.181Z,4.68
2022-08-16T18:13:59.453Z,4.80
2022-08-16T18:16:26.380Z,4.00
2022-08-16T18:18:52.743Z,3.80
2022-08-16T18:21:37.596Z,5.72
2022-08-16T18:24:04.850Z,6.22
2022-08-16T18:26:31.152Z,16.80
2022-08-16T18:28:58.190Z,4.40
2022-08-16T18:31:24.727Z,4.40
2022-08-16T18:33:54.699Z,4.80
2022-08-16T18:36:23.328Z,3.90
2022-08-16T18:38:50.246Z,4.72
2022-08-16T18:41:17.203Z,5.70
2022-08-16T18:44:04.820Z,5.45
2022-08-16T18:46:51.300Z,7.05
2022-08-16T18:49:18.347Z,8.07
2022-08-16T18:51:45.315Z,6.68
2022-08-16T18:54:13.179Z,6.05
2022-08-16T18:56:56.828Z,6.57
2022-08-16T18:59:28.156Z,5.43
2022-08-16T19:02:00.223Z,4.43
2022-08-16T19:04:56.454Z,4.30
2022-08-16T19:07:30.485Z,4.87
2022-08-16T19:10:01.737Z,5.25
2022-08-16T19:12:38.383Z,6.22
2022-08-16T19:15:16.616Z,6.55
2022-08-16T19:17:44.449Z,5.03
2022-08-16T19:20:12.356Z,5.18
2022-08-16T19:23:02.078Z,4.93
2022-08-16T19:25:47.268Z,4.70
2022-08-16T19:28:50.143Z,4.50
2022-08-16T19:31:28.651Z,4.65
2022-08-16T19:33:56.729Z,6.20
2022-08-16T19:36:35.719Z,6.43
2022-08-16T19:39:06.180Z,6.95
2022-08-16T19:41:53.220Z,6.82
2022-08-16T19:44:23.890Z,6.18
2022-08-16T19:46:50.680Z,4.90
2022-08-16T19:49:17.959Z,5.35
2022-08-16T19:51:46.378Z,6.00
2022-08-16T19:54:12.750Z,5.60
2022-08-16T19:56:40.417Z,4.40
2022-08-16T19:59:40.169Z,4.10
2022-08-16T20:02:23.676Z,4.40
2022-08-16T20:05:03.062Z,4.00
2022-08-16T20:07:29.754Z,3.95
2022-08-16T20:09:58.583Z,3.90
2022-08-16T20:12:36.094Z,4.10
2022-08-16T20:15:05.721Z,4.20
2022-08-16T20:17:34.019Z,4.18
2022-08-16T20:20:01.187Z,3.42
2022-08-16T20:22:52.579Z,3.33
2022-08-16T20:25:28.404Z,3.60
2022-08-16T20:27:58.488Z,3.85
2022-08-16T20:30:27.290Z,4.20
2022-08-16T20:32:54.784Z,4.62
2022-08-16T20:35:22.814Z,4.72
2022-08-16T20:37:49.616Z,4.78
2022-08-16T20:40:34.734Z,4.82
2022-08-16T20:43:18.574Z,5.80
2022-08-16T20:45:46.979Z,5.55
2022-08-16T20:48:17.806Z,6.85
2022-08-16T20:50:44.836Z,7.03
2022-08-16T20:53:11.693Z,8.07
2022-08-16T20:55:40.128Z,10.18
2022-08-16T20:58:08.182Z,12.32
2022-08-16T21:00:34.815Z,12.55
2022-08-16T21:03:06.794Z,10.77
2022-08-16T21:05:35.582Z,11.20
2022-08-16T21:08:04.748Z,10.57
2022-08-16T21:11:20.127Z,9.35
2022-08-16T21:13:47.549Z,10.07
2022-08-16T21:16:18.400Z,9.48
2022-08-16T21:18:46.550Z,9.43
2022-08-16T21:21:13.572Z,9.02
2022-08-16T21:23:41.491Z,9.27
2022-08-16T21:26:11.098Z,8.52
2022-08-16T21:28:43.325Z,8.02
2022-08-16T21:31:12.068Z,7.93
2022-08-16T21:33:39.003Z,6.55
2022-08-16T21:36:06.857Z,6.07
2022-08-16T21:38:34.343Z,5.87
2022-08-16T21:41:02.358Z,5.25
2022-08-16T21:43:32.604Z,4.87
2022-08-16T21:46:02.830Z,4.87
2022-08-16T21:48:34.792Z,3.97
2022-08-16T21:51:06.728Z,4.45
2022-08-16T21:53:33.605Z,3.90
2022-08-16T21:56:01.073Z,3.60
2022-08-16T21:58:28.634Z,3.70
2022-08-16T22:00:55.058Z,3.80
2022-08-16T22:03:26.625Z,3.62
2022-08-16T22:06:11.699Z,3.50
2022-08-16T22:08:49.858Z,3.30
2022-08-16T22:11:21.825Z,3.78
2022-08-16T22:13:51.471Z,3.75
2022-08-16T22:16:31.040Z,3.87
2022-08-16T22:18:57.473Z,3.70
2022-08-16T22:21:23.940Z,3.95
2022-08-16T22:23:57.218Z,3.80
2022-08-16T22:26:30.142Z,3.72
2022-08-16T22:29:00.015Z,3.83
2022-08-16T22:31:27.112Z,4.10
2022-08-16T22:33:54.736Z,4.10
2022-08-16T22:36:21.592Z,4.03
2022-08-16T22:38:55.896Z,3.60
2022-08-16T22:41:24.576Z,3.55
2022-08-16T22:43:51.450Z,3.83
2022-08-16T22:46:19.929Z,3.97
2022-08-16T22:48:49.537Z,3.95
2022-08-16T22:51:17.228Z,3.83
2022-08-16T22:53:43.544Z,3.65
2022-08-16T22:56:09.962Z,4.00
2022-08-16T22:58:36.947Z,4.20
2022-08-16T23:01:06.670Z,4.10
2022-08-16T23:03:33.000Z,4.32
2022-08-16T23:05:59.914Z,3.90
2022-08-16T23:08:38.221Z,3.92
2022-08-16T23:11:11.696Z,3.87
2022-08-16T23:13:38.248Z,4.00
2022-08-16T23:16:21.259Z,3.90
2022-08-16T23:18:48.232Z,4.05
2022-08-16T23:21:15.106Z,4.47
2022-08-16T23:23:41.423Z,4.70
2022-08-16T23:26:44.773Z,4.80
2022-08-16T23:29:24.085Z,4.50
2022-08-16T23:31:58.199Z,4.82
2022-08-16T23:34:26.594Z,4.57
2022-08-16T23:36:53.398Z,4.65
2022-08-16T23:39:19.646Z,5.07
2022-08-16T23:41:45.875Z,4.70
2022-08-16T23:44:44.095Z,4.90
2022-08-16T23:47:25.147Z,4.62
2022-08-16T23:50:01.178Z,4.70
2022-08-16T23:52:45.242Z,4.40
2022-08-16T23:55:22.645Z,5.03
2022-08-16T23:57:49.055Z,4.20
